Record high temperature 36.9°C Record low temperature 1.9°C Record high gust 66.0 km/h Record high average 48.1 km/h Record daily rain 24.9 mm Record low windchill -1.0°C Record high barometer 1034.8 hPa Record low barometer 992.6 hPa
Daily high pressure 1029.8 hPa Daily low pressure 1026.0 hPa Daily low windchill 2.3°C Daily high heat index 11.4°C Daily high gust speed 12.9 kmh SSE Daily high average speed 9.4 kmh SSE
Stazione meteo Crema centro
LAST READING AT TIME: 16:25 DATE: 27 November 2022, time of next update: 16:30
Current WeatherDry Current Temperature 10.4°C (50.8°F), Apparent temp 9.9°C, Apparent temp solar 11.6°C
Maximum Temperature (since midnight)11.4°C at: 14:34 Minimum Temperature (since midnight)3.0°C at: 05:34
Average windspeed (ten minute)0.0 kmh (0.0 kts) Wind Direction (ten minute)ESE (112°)
Windchill Temperature 10.4°C Maximum Gust (last hour)0.0 kmh (0.0 kts) at: 15:24
Maximum Gust (since midnight)12.9 kmh (7.0 kts) at: 14:10 Maximum 1 minute average (since midnight)9.4 kmh (5.1 kts) at: 14:10
Rainfall (last hour)0.0 mm Rainfall (since midnight)0.0 mm (0.00 in.)---
Rainfall This month 55.6 mm (2.19 in.) Rainfall To date this year 236.2 mm (9.30 in.)
Maximum rain per minute (last hour)0.0 mm/min Maximum rain per hour (last 6 hours)0.0 mm/hour
Yesterdays rainfall 0.0 mm DewPoint 5.2°C (Wet Bulb :8.0°C )
Humidity 70 %, Humidex 9.8°C Barometer corrected to msl1026.0 hPa
Pressure change -0.2 hPa (last hour) Trend (last hour)STEADY
Pressure change (last 12 hours)-2.9 hPa Pressure change (last 6 hours)-3.6 hPa
Current Solar 11 W/mē
Maximum solar (since midnight) 353 W/mē Minimum solar (since midnight)0 W/mē
Current 00:09 hours of sunshine today, current sky: Overcast and gloomy
Sunshine hours for the year: 620:26 hrs Sunshine hours for the month: 07:52 hrs
Current evapotranspiration rate 0.6 mm per day. Yesterday's reading 0.8

Status report of weather station: IK2CHZ - Crema meteo



Weather report/warning/Metars

Milano / Linate, Italy (LIML) 45-26N 009-17E 103M
Nov 27, 2022 - 09:50 AM EST / 2022.11.27 1450 UTC
Wind: Variable at 2 MPH (2 KT):0
Visibility: greater than 7 mile(s):0
Temperature: 50 F (10 C)
Dew Point: 39 F (4 C)
Relative Humidity: 66%
Pressure (altimeter): 30.30 in. Hg (1026 hPa)
ob: LIML 271450Z VRB02KT CAVOK 10/04 Q1026 NOSIG
cycle: 15
Bergamo / Orio Al Serio, Italy (LIME) 45-40N 009-42E 237M
Nov 27, 2022 - 09:50 AM EST / 2022.11.27 1450 UTC
Wind: from the SE (140 degrees) at 6 MPH (5 KT):0
Visibility: greater than 7 mile(s):0
Temperature: 50 F (10 C)
Dew Point: 39 F (4 C)
Relative Humidity: 66%
Pressure (altimeter): 30.30 in. Hg (1026 hPa)
ob: LIME 271450Z 14005KT CAVOK 10/04 Q1026 NOSIG
cycle: 15
Piacenza, Italy (LIMS) 44-55N 009-44E 138M
Nov 27, 2022 - 09:55 AM EST / 2022.11.27 1455 UTC
Wind: from the E (100 degrees) at 3 MPH (3 KT):0
Visibility: 3 mile(s):0
Temperature: 48 F (9 C)
Dew Point: 48 F (9 C)
Relative Humidity: 100%
Pressure (altimeter): 30.27 in. Hg (1025 hPa)
ob: LIMS 271455Z 10003KT 6000 NSC 09/09 Q1025
cycle: 15